createdAt,value
2018-06-04T00:00:37.573Z,90.30
2018-06-04T00:08:00.141Z,90.70
2018-06-04T00:15:22.780Z,90.70
2018-06-04T00:17:50.356Z,90.30
2018-06-04T00:22:45.543Z,90.60
2018-06-04T00:25:13.144Z,91.10
2018-06-04T00:32:35.664Z,90.80
2018-06-04T00:35:03.314Z,91.10
2018-06-04T00:39:58.379Z,91.10
2018-06-04T00:42:26.010Z,91.30
2018-06-04T00:47:21.113Z,91.30
2018-06-04T00:52:16.188Z,91.60
2018-06-04T00:57:11.224Z,91.70
2018-06-04T00:59:38.784Z,91.70
2018-06-04T01:04:33.885Z,91.60
2018-06-04T01:07:01.526Z,91.70
2018-06-04T01:09:29.135Z,91.70
2018-06-04T01:14:24.241Z,91.80
2018-06-04T01:19:19.418Z,91.90
2018-06-04T01:21:46.998Z,91.90
2018-06-04T01:26:42.056Z,91.90
2018-06-04T01:29:09.675Z,91.80
2018-06-04T01:36:32.213Z,91.90
2018-06-04T01:38:59.833Z,91.50
2018-06-04T01:43:54.955Z,91.80
2018-06-04T01:46:22.554Z,91.90
2018-06-04T01:48:50.135Z,91.70
2018-06-04T01:51:17.756Z,91.90
2018-06-04T01:56:12.836Z,92.00
2018-06-04T01:58:40.444Z,92.20
2018-06-04T02:01:08.059Z,92.30
2018-06-04T02:03:35.716Z,92.20
2018-06-04T02:06:03.308Z,92.30
2018-06-04T02:08:30.952Z,92.50
2018-06-04T02:10:58.591Z,92.60
2018-06-04T02:20:48.740Z,92.40
2018-06-04T02:23:16.360Z,92.40
2018-06-04T02:25:44.000Z,92.70
2018-06-04T02:28:11.575Z,92.40
2018-06-04T02:30:39.175Z,92.30
2018-06-04T02:33:06.758Z,92.50
2018-06-04T02:35:34.406Z,92.70
2018-06-04T02:38:02.047Z,92.60
2018-06-04T02:45:24.723Z,92.80
2018-06-04T02:50:19.867Z,92.50
2018-06-04T02:52:47.525Z,92.70
2018-06-04T02:55:15.116Z,92.60
2018-06-04T03:00:10.198Z,92.80
2018-06-04T03:05:05.336Z,92.30
2018-06-04T03:07:32.962Z,92.30
2018-06-04T03:10:00.635Z,92.50
2018-06-04T03:12:28.279Z,92.60
2018-06-04T03:14:55.880Z,92.70
2018-06-04T03:17:23.556Z,92.60
2018-06-04T03:22:18.780Z,92.40
2018-06-04T03:24:46.415Z,92.70
2018-06-04T03:29:41.505Z,91.90
2018-06-04T03:32:09.100Z,92.10
2018-06-04T03:34:36.718Z,92.20
2018-06-04T03:37:04.301Z,91.90
2018-06-04T03:41:59.391Z,91.30
2018-06-04T03:46:54.531Z,91.40
2018-06-04T03:49:22.126Z,91.60
2018-06-04T03:54:17.236Z,92.00
2018-06-04T03:56:44.879Z,92.30
2018-06-04T03:59:12.446Z,92.40
2018-06-04T04:04:07.531Z,92.60
2018-06-04T04:09:02.901Z,92.70
2018-06-04T04:11:30.540Z,92.90
2018-06-04T04:13:58.100Z,92.90
2018-06-04T04:18:53.210Z,93.10
2018-06-04T04:21:20.846Z,92.90
2018-06-04T04:28:43.683Z,92.90
2018-06-04T04:31:11.271Z,93.00
2018-06-04T04:33:38.924Z,93.00
2018-06-04T04:38:34.089Z,93.10
2018-06-04T04:41:01.723Z,92.80
2018-06-04T04:45:56.825Z,93.10
2018-06-04T04:53:19.514Z,92.80
2018-06-04T04:55:47.141Z,92.60
2018-06-04T04:58:14.736Z,92.20
2018-06-04T05:00:42.327Z,91.90
2018-06-04T05:03:10.045Z,90.50
2018-06-04T05:13:00.156Z,91.10
2018-06-04T05:17:55.246Z,91.50
2018-06-04T05:22:50.357Z,91.30
2018-06-04T05:25:17.975Z,91.70
2018-06-04T05:27:45.545Z,91.60
2018-06-04T05:30:13.141Z,91.60
2018-06-04T05:35:08.235Z,91.50
2018-06-04T05:37:35.802Z,91.10
2018-06-04T05:40:03.445Z,90.90
2018-06-04T05:42:31.081Z,90.50
2018-06-04T05:54:48.633Z,87.30
2018-06-04T05:57:16.251Z,87.40
2018-06-04T05:59:43.835Z,86.30
2018-06-04T06:04:38.971Z,86.20
2018-06-04T06:07:06.547Z,83.60
2018-06-04T06:09:34.141Z,84.50
2018-06-04T06:12:01.715Z,84.90
2018-06-04T06:14:29.353Z,84.00
2018-06-04T06:16:56.961Z,80.60
2018-06-04T06:19:24.536Z,80.00
2018-06-04T06:21:52.091Z,80.80
2018-06-04T06:29:14.737Z,79.50
2018-06-04T06:31:42.347Z,80.50
2018-06-04T06:34:10.007Z,78.00
2018-06-04T06:36:37.606Z,80.10
2018-06-04T06:39:07.783Z,80.10
2018-06-04T06:41:36.216Z,74.10
2018-06-04T06:44:03.912Z,73.60
2018-06-04T06:46:31.524Z,74.30
2018-06-04T06:51:37.842Z,71.40
2018-06-04T06:54:05.725Z,71.10
2018-06-04T06:56:33.375Z,73.40
2018-06-04T06:59:00.978Z,69.50
2018-06-04T07:01:28.556Z,70.60
2018-06-04T07:03:56.112Z,68.60
2018-06-04T07:06:23.706Z,67.60
2018-06-04T07:08:51.268Z,68.90
2018-06-04T07:11:18.850Z,65.60
2018-06-04T07:16:13.880Z,67.40
2018-06-04T07:18:41.512Z,68.30
2018-06-04T07:21:09.090Z,65.60
2018-06-04T07:23:36.708Z,63.00
2018-06-04T07:26:04.347Z,64.80
2018-06-04T07:28:31.972Z,67.80
2018-06-04T07:30:59.553Z,66.10
2018-06-04T07:33:27.197Z,64.90
2018-06-04T07:38:24.048Z,62.00
2018-06-04T07:40:51.633Z,65.70
2018-06-04T07:43:19.172Z,61.40
2018-06-04T07:45:46.747Z,64.50
2018-06-04T07:50:41.769Z,62.50
2018-06-04T07:53:09.313Z,59.80
2018-06-04T07:55:36.852Z,61.10
2018-06-04T07:58:04.427Z,59.90
2018-06-04T08:00:31.976Z,57.80
2018-06-04T08:02:59.516Z,58.40
2018-06-04T08:07:54.801Z,58.50
2018-06-04T08:10:22.482Z,60.60
2018-06-04T08:12:50.032Z,59.30
2018-06-04T08:15:17.681Z,58.40
2018-06-04T08:17:45.317Z,57.60
2018-06-04T08:27:35.418Z,56.10
2018-06-04T08:30:03.024Z,55.90
2018-06-04T08:34:58.064Z,58.50
2018-06-04T08:37:25.643Z,55.60
2018-06-04T08:39:53.281Z,54.20
2018-06-04T08:42:21.232Z,54.40
2018-06-04T08:44:49.693Z,54.30
2018-06-04T08:49:44.709Z,53.00
2018-06-04T08:52:12.308Z,53.90
2018-06-04T08:54:39.929Z,56.00
2018-06-04T08:57:07.537Z,56.70
2018-06-04T08:59:35.134Z,55.40
2018-06-04T09:02:02.708Z,53.50
2018-06-04T09:04:30.299Z,51.30
2018-06-04T09:06:57.830Z,52.20
2018-06-04T09:09:25.443Z,55.00
2018-06-04T09:11:53.014Z,52.30
2018-06-04T09:14:20.627Z,52.80
2018-06-04T09:16:48.207Z,51.40
2018-06-04T09:19:15.970Z,52.50
2018-06-04T09:21:43.611Z,50.10
2018-06-04T09:24:11.389Z,51.10
2018-06-04T09:26:38.964Z,52.30
2018-06-04T09:29:06.552Z,52.80
2018-06-04T09:34:01.621Z,50.70
2018-06-04T09:36:29.202Z,50.00
2018-06-04T09:38:56.829Z,52.20
2018-06-04T09:43:51.861Z,51.10
2018-06-04T09:46:19.404Z,51.00
2018-06-04T09:51:14.431Z,50.30
2018-06-04T09:53:42.044Z,50.30
2018-06-04T09:56:09.595Z,51.10
2018-06-04T09:58:37.193Z,52.60
2018-06-04T10:01:04.770Z,53.00
2018-06-04T10:03:32.350Z,49.00
2018-06-04T10:05:59.993Z,49.20
2018-06-04T10:08:27.563Z,49.80
2018-06-04T10:10:55.172Z,48.90
2018-06-04T10:13:22.725Z,49.40
2018-06-04T10:18:17.765Z,52.10
2018-06-04T10:23:13.502Z,51.50
2018-06-04T10:25:41.135Z,49.70
2018-06-04T10:28:08.798Z,47.40
2018-06-04T10:30:36.326Z,48.40
2018-06-04T10:33:04.028Z,48.50
2018-06-04T10:35:31.613Z,47.60
2018-06-04T10:37:59.206Z,45.70
2018-06-04T10:40:26.789Z,46.50
2018-06-04T10:42:54.398Z,47.50
2018-06-04T10:45:21.938Z,47.60
2018-06-04T10:47:49.518Z,46.80
2018-06-04T10:50:17.075Z,46.80
2018-06-04T10:55:12.154Z,46.30
2018-06-04T10:57:39.765Z,45.50
2018-06-04T11:00:07.333Z,43.10
2018-06-04T11:02:34.913Z,46.90
2018-06-04T11:05:02.519Z,47.50
2018-06-04T11:07:30.080Z,46.10
2018-06-04T11:17:19.984Z,42.70
2018-06-04T11:19:47.557Z,47.00
2018-06-04T11:22:15.103Z,45.10
2018-06-04T11:24:42.680Z,45.00
2018-06-04T11:27:10.214Z,45.50
2018-06-04T11:32:05.304Z,44.80
2018-06-04T11:34:32.872Z,44.20
2018-06-04T11:37:00.430Z,44.30
2018-06-04T11:39:27.987Z,43.60
2018-06-04T11:41:55.579Z,43.50
2018-06-04T11:44:23.886Z,43.60
2018-06-04T11:46:51.462Z,47.00
2018-06-04T11:51:46.576Z,47.50
2018-06-04T11:54:14.127Z,44.90
2018-06-04T11:56:41.783Z,46.10
2018-06-04T11:59:09.250Z,47.40
2018-06-04T12:01:36.833Z,48.00
2018-06-04T12:04:04.920Z,46.80
2018-06-04T12:08:59.902Z,47.30
2018-06-04T12:11:27.535Z,46.90
2018-06-04T12:13:54.998Z,46.00
2018-06-04T12:18:50.011Z,45.10
2018-06-04T12:23:45.109Z,43.40
2018-06-04T12:28:40.148Z,45.70
2018-06-04T12:31:07.714Z,44.90
2018-06-04T12:33:35.293Z,46.20
2018-06-04T12:36:02.854Z,46.40
2018-06-04T12:38:30.504Z,41.90
2018-06-04T12:40:58.055Z,43.80
2018-06-04T12:43:25.612Z,43.70
2018-06-04T12:45:53.138Z,44.70
2018-06-04T12:50:48.167Z,43.00
2018-06-04T12:53:15.843Z,42.70
2018-06-04T12:58:10.860Z,45.70
2018-06-04T13:05:33.320Z,42.90
2018-06-04T13:08:00.848Z,43.20
2018-06-04T13:10:28.462Z,45.40
2018-06-04T13:12:56.055Z,43.40
2018-06-04T13:20:18.544Z,40.80
2018-06-04T13:25:13.540Z,37.80
2018-06-04T13:27:41.081Z,41.70
2018-06-04T13:30:09.600Z,37.80
2018-06-04T13:32:37.158Z,38.20
2018-06-04T13:35:04.743Z,40.50
2018-06-04T13:37:32.288Z,40.90
2018-06-04T13:39:59.890Z,42.10
2018-06-04T13:47:22.423Z,39.90
2018-06-04T13:52:17.459Z,37.60
2018-06-04T13:54:45.004Z,35.80
2018-06-04T13:57:12.598Z,37.20
2018-06-04T14:02:07.591Z,34.50
2018-06-04T14:04:35.139Z,33.20
2018-06-04T14:07:02.715Z,33.70
2018-06-04T14:09:30.272Z,36.20
2018-06-04T14:14:25.258Z,35.10
2018-06-04T14:16:52.820Z,39.40
2018-06-04T14:19:20.370Z,37.00
2018-06-04T14:21:47.981Z,35.70
2018-06-04T14:24:15.568Z,37.00
2018-06-04T14:26:43.136Z,36.40
2018-06-04T14:31:38.163Z,34.80
2018-06-04T14:34:05.730Z,35.80
2018-06-04T14:39:00.827Z,35.90
2018-06-04T14:41:28.359Z,34.10
2018-06-04T14:43:55.931Z,35.70
2018-06-04T14:46:23.518Z,36.30
2018-06-04T14:48:51.063Z,36.80
2018-06-04T14:51:18.598Z,35.90
2018-06-04T14:53:46.135Z,33.90
2018-06-04T14:56:13.655Z,36.70
2018-06-04T14:58:41.323Z,35.90
2018-06-04T15:01:08.865Z,36.20
2018-06-04T15:03:36.416Z,36.90
2018-06-04T15:06:04.011Z,36.20
2018-06-04T15:08:31.574Z,34.30
2018-06-04T15:10:59.225Z,34.80
2018-06-04T15:13:26.775Z,35.30
2018-06-04T15:15:54.333Z,37.60
2018-06-04T15:18:21.912Z,36.60
2018-06-04T15:20:49.449Z,37.90
2018-06-04T15:25:44.486Z,36.00
2018-06-04T15:28:12.030Z,37.50
2018-06-04T15:30:39.596Z,37.60
2018-06-04T15:33:07.136Z,39.40
2018-06-04T15:35:34.726Z,38.00
2018-06-04T15:38:02.332Z,37.10
2018-06-04T15:40:29.914Z,36.40
2018-06-04T15:42:57.497Z,37.30
2018-06-04T15:45:25.051Z,36.60
2018-06-04T15:47:52.679Z,38.30
2018-06-04T15:50:20.322Z,38.60
2018-06-04T15:52:47.859Z,38.40
2018-06-04T15:55:15.480Z,39.80
2018-06-04T15:57:43.038Z,38.50
2018-06-04T16:00:10.652Z,39.70
2018-06-04T16:02:38.196Z,39.50
2018-06-04T16:07:33.243Z,40.40
2018-06-04T16:10:00.771Z,39.00
2018-06-04T16:12:28.334Z,40.80
2018-06-04T16:14:55.949Z,38.80
2018-06-04T16:17:23.551Z,39.60
2018-06-04T16:19:51.056Z,41.80
2018-06-04T16:24:46.108Z,41.50
2018-06-04T16:27:13.677Z,41.20
2018-06-04T16:29:41.225Z,40.10
2018-06-04T16:32:08.819Z,42.20
2018-06-04T16:34:36.393Z,42.90
2018-06-04T16:37:04.035Z,43.10
2018-06-04T16:39:31.686Z,42.90
2018-06-04T16:44:26.679Z,42.10
2018-06-04T16:46:54.242Z,42.30
2018-06-04T16:49:21.799Z,42.20
2018-06-04T16:51:49.357Z,41.90
2018-06-04T16:56:44.385Z,44.80
2018-06-04T16:59:11.991Z,43.50
2018-06-04T17:04:07.028Z,43.30
2018-06-04T17:06:34.649Z,42.70
2018-06-04T17:09:02.251Z,42.80
2018-06-04T17:11:29.816Z,42.80
2018-06-04T17:16:24.882Z,45.50
2018-06-04T17:21:20.026Z,44.00
2018-06-04T17:23:47.580Z,43.90
2018-06-04T17:26:15.240Z,45.50
2018-06-04T17:28:42.821Z,45.50
2018-06-04T17:31:10.421Z,45.30
2018-06-04T17:33:37.944Z,45.40
2018-06-04T17:36:05.622Z,46.00
2018-06-04T17:38:33.196Z,46.80
2018-06-04T17:41:00.756Z,47.90
2018-06-04T17:43:28.306Z,47.20
2018-06-04T17:45:55.855Z,48.50
2018-06-04T17:50:51.065Z,49.00
2018-06-04T17:53:18.646Z,49.30
2018-06-04T17:58:13.727Z,49.50
2018-06-04T18:00:41.302Z,49.80
2018-06-04T18:03:08.894Z,50.90
2018-06-04T18:08:04.096Z,52.70
2018-06-04T18:10:31.741Z,52.70
2018-06-04T18:15:26.846Z,52.70
2018-06-04T18:17:54.476Z,53.20
2018-06-04T18:20:22.067Z,54.20
2018-06-04T18:25:17.115Z,54.80
2018-06-04T18:27:44.740Z,55.00
2018-06-04T18:30:12.380Z,54.50
2018-06-04T18:32:39.992Z,54.70
2018-06-04T18:35:07.576Z,54.20
2018-06-04T18:40:02.883Z,56.00
2018-06-04T18:42:30.462Z,57.50
2018-06-04T18:44:58.091Z,56.40
2018-06-04T18:47:25.649Z,58.40
2018-06-04T18:49:53.370Z,58.50
2018-06-04T18:54:48.493Z,60.30
2018-06-04T18:59:43.606Z,59.50
2018-06-04T19:02:11.241Z,60.90
2018-06-04T19:04:38.901Z,59.90
2018-06-04T19:07:06.536Z,60.00
2018-06-04T19:12:01.596Z,60.40
2018-06-04T19:16:56.711Z,62.10
2018-06-04T19:19:24.311Z,63.50
2018-06-04T19:21:51.891Z,63.80
2018-06-04T19:24:19.500Z,63.30
2018-06-04T19:29:14.627Z,65.80
2018-06-04T19:34:09.667Z,65.90
2018-06-04T19:39:07.613Z,65.80
2018-06-04T19:41:35.246Z,67.10
2018-06-04T19:46:30.616Z,68.10
2018-06-04T19:48:58.202Z,68.50
2018-06-04T19:51:25.836Z,69.50
2018-06-04T19:54:07.194Z,70.50
2018-06-04T19:56:35.675Z,70.50
2018-06-04T19:59:04.472Z,71.30
2018-06-04T20:01:51.858Z,71.40
2018-06-04T20:04:36.571Z,71.60
2018-06-04T20:07:05.263Z,71.00
2018-06-04T20:09:33.812Z,71.20
2018-06-04T20:12:02.719Z,70.50
2018-06-04T20:14:30.392Z,71.10
2018-06-04T20:16:58.076Z,71.50
2018-06-04T20:19:25.708Z,72.40
2018-06-04T20:21:54.017Z,72.90
2018-06-04T20:24:22.295Z,74.00
2018-06-04T20:26:51.552Z,73.70
2018-06-04T20:29:19.176Z,73.50
2018-06-04T20:31:49.732Z,75.20
2018-06-04T20:34:19.515Z,74.70
2018-06-04T20:36:48.931Z,75.60
2018-06-04T20:39:17.756Z,75.20
2018-06-04T20:44:16.055Z,75.60
2018-06-04T20:46:44.487Z,76.40
2018-06-04T20:49:12.938Z,77.90
2018-06-04T20:51:42.148Z,78.50
2018-06-04T20:54:10.327Z,78.10
2018-06-04T20:56:38.361Z,77.90
2018-06-04T20:59:07.732Z,77.50
2018-06-04T21:01:35.751Z,78.40
2018-06-04T21:04:04.546Z,78.50
2018-06-04T21:06:34.968Z,78.10
2018-06-04T21:09:04.281Z,78.70
2018-06-04T21:11:31.851Z,79.00
2018-06-04T21:13:59.556Z,79.10
2018-06-04T21:18:54.715Z,79.50
2018-06-04T21:21:22.276Z,79.70
2018-06-04T21:23:50.017Z,79.60
2018-06-04T21:26:17.648Z,79.50
2018-06-04T21:28:45.222Z,79.70
2018-06-04T21:33:37.942Z,80.60
2018-06-04T21:36:05.560Z,79.80
2018-06-04T21:38:33.278Z,80.30
2018-06-04T21:43:28.418Z,80.80
2018-06-04T21:45:56.037Z,80.20
2018-06-04T21:48:23.675Z,80.70
2018-06-04T21:50:51.316Z,81.20
2018-06-04T21:55:46.477Z,80.90
2018-06-04T21:58:14.036Z,82.00
2018-06-04T22:00:41.708Z,82.10
2018-06-04T22:03:09.297Z,82.70
2018-06-04T22:05:36.934Z,82.80
2018-06-04T22:08:04.605Z,83.00
2018-06-04T22:10:32.167Z,83.30
2018-06-04T22:20:22.243Z,83.50
2018-06-04T22:22:49.902Z,83.60
2018-06-04T22:25:17.529Z,82.30
2018-06-04T22:27:45.143Z,80.30
2018-06-04T22:30:12.784Z,80.20
2018-06-04T22:35:07.959Z,82.40
2018-06-04T22:37:35.538Z,83.10
2018-06-04T22:40:03.186Z,84.30
2018-06-04T22:44:58.296Z,84.80
2018-06-04T22:47:25.851Z,85.50
2018-06-04T22:49:53.499Z,84.60
2018-06-04T22:52:21.077Z,85.50
2018-06-04T22:54:48.649Z,85.10
2018-06-04T22:57:16.187Z,85.90
2018-06-04T22:59:43.797Z,84.00
2018-06-04T23:02:11.352Z,84.90
2018-06-04T23:04:38.912Z,84.50
2018-06-04T23:07:06.462Z,85.00
2018-06-04T23:14:28.944Z,85.80
2018-06-04T23:16:56.493Z,86.30
2018-06-04T23:21:51.601Z,86.30
2018-06-04T23:24:19.199Z,86.20
2018-06-04T23:26:46.794Z,86.70
2018-06-04T23:29:14.372Z,87.30
2018-06-04T23:31:41.927Z,86.90
2018-06-04T23:36:36.958Z,87.50
2018-06-04T23:39:06.933Z,87.20
2018-06-04T23:41:34.529Z,87.60
2018-06-04T23:46:29.544Z,87.00
2018-06-04T23:48:57.084Z,86.50
2018-06-04T23:51:24.642Z,86.90
2018-06-04T23:53:52.147Z,86.50
2018-06-04T23:56:19.742Z,86.90
2018-06-04T23:58:47.268Z,86.50
